Belen, New Mexico
Current Conditions -  °F | °C
As of 7:15 PM on Saturday 22 Nov 2014 (Local Time) from KE80 Reporting Station
Clear Clear  
Wind Chill: 52°   Ceiling: Unl
Heat Index: 52°   Visibility: 10mi
Dew Point: 12°   Wind: 5mph
Humidity: 20%   Direction: 240°WSW
Pressure: 29.91"   Gusts: NA
Location:  34.66°N, 106.77°W
Report Text: KE80 230215Z AUTO 24004KT 10SM CLR 11/M11 A2991 RMK AO2 T01121109
Loading
Personal Weather Stations






























Interactive Weather Map New forecast layout! Learn more

10-Day Weather Forecast

Advertisements
Track Severe Weather on mobile